Tuckerman, Arkansas
Current Conditions -  °F | °C
As of 8:32 PM on Wednesday 22 Oct 2014 (Local Time) from KM19 Reporting Station
Haze Haze  
Wind Chill: 54°   Ceiling: Unl
Heat Index: 54°   Visibility: 3mi
Dew Point: 46°   Wind: 3mph
Humidity: 77%   Direction: 40°NE
Pressure: 30.2"   Gusts: NA
Location:  35.73°N, 91.2°W
Report Text: KM19 230132Z AUTO 04003KT 3SM HZ CLR 12/08 A3020 RMK AO2 RAE31 P0000
Loading
Personal Weather Stations






























Interactive Weather Map
Tropical Storm Tracking
New forecast layout! Learn more

10-Day Weather Forecast

Advertisements
Track Severe Weather on mobile